sensor_id;sensor_type;location;lat;lon;timestamp;pressure;altitude;pressure_sealevel;temperature
4421;BMP180;11824;51.178;13.546;2023-04-15T00:02:16;99110.00;;;7.90
4421;BMP180;11824;51.178;13.546;2023-04-15T00:04:44;99107.00;;;7.90
4421;BMP180;11824;51.178;13.546;2023-04-15T00:07:12;99102.00;;;7.90
4421;BMP180;11824;51.178;13.546;2023-04-15T00:09:40;99098.00;;;7.90
4421;BMP180;11824;51.178;13.546;2023-04-15T00:12:09;99101.00;;;7.90
4421;BMP180;11824;51.178;13.546;2023-04-15T00:14:36;99094.00;;;7.90
4421;BMP180;11824;51.178;13.546;2023-04-15T00:17:05;99099.00;;;7.90
4421;BMP180;11824;51.178;13.546;2023-04-15T00:19:33;99098.00;;;7.90
4421;BMP180;11824;51.178;13.546;2023-04-15T00:22:00;99093.00;;;7.90
4421;BMP180;11824;51.178;13.546;2023-04-15T00:24:27;99082.00;;;7.90
4421;BMP180;11824;51.178;13.546;2023-04-15T00:26:56;99084.00;;;7.90
4421;BMP180;11824;51.178;13.546;2023-04-15T00:29:24;99072.00;;;7.90
4421;BMP180;11824;51.178;13.546;2023-04-15T00:31:52;99064.00;;;7.90
4421;BMP180;11824;51.178;13.546;2023-04-15T00:34:20;99078.00;;;7.90
4421;BMP180;11824;51.178;13.546;2023-04-15T00:36:47;99086.00;;;7.90
4421;BMP180;11824;51.178;13.546;2023-04-15T00:39:14;99085.00;;;7.90
4421;BMP180;11824;51.178;13.546;2023-04-15T00:41:42;99089.00;;;7.90
4421;BMP180;11824;51.178;13.546;2023-04-15T00:44:09;99092.00;;;7.90
4421;BMP180;11824;51.178;13.546;2023-04-15T00:46:38;99079.00;;;7.90
4421;BMP180;11824;51.178;13.546;2023-04-15T00:49:06;99083.00;;;7.90
4421;BMP180;11824;51.178;13.546;2023-04-15T00:51:34;99083.00;;;7.90
4421;BMP180;11824;51.178;13.546;2023-04-15T00:54:02;99079.00;;;7.90
4421;BMP180;11824;51.178;13.546;2023-04-15T00:56:30;99088.00;;;7.90
4421;BMP180;11824;51.178;13.546;2023-04-15T00:58:59;99086.00;;;7.90
4421;BMP180;11824;51.178;13.546;2023-04-15T01:01:28;99084.00;;;7.90
4421;BMP180;11824;51.178;13.546;2023-04-15T01:03:56;99076.00;;;7.90
4421;BMP180;11824;51.178;13.546;2023-04-15T01:06:24;99079.00;;;7.90
4421;BMP180;11824;51.178;13.546;2023-04-15T01:08:54;99079.00;;;8.00
4421;BMP180;11824;51.178;13.546;2023-04-15T01:11:23;99074.00;;;8.00
4421;BMP180;11824;51.178;13.546;2023-04-15T01:13:50;99072.00;;;8.00
4421;BMP180;11824;51.178;13.546;2023-04-15T01:16:19;99074.00;;;8.00
4421;BMP180;11824;51.178;13.546;2023-04-15T01:18:46;99071.00;;;8.00
4421;BMP180;11824;51.178;13.546;2023-04-15T01:21:14;99064.00;;;8.00
4421;BMP180;11824;51.178;13.546;2023-04-15T01:23:41;99065.00;;;8.00
4421;BMP180;11824;51.178;13.546;2023-04-15T01:26:09;99062.00;;;8.00
4421;BMP180;11824;51.178;13.546;2023-04-15T01:28:37;99051.00;;;8.00
4421;BMP180;11824;51.178;13.546;2023-04-15T01:31:06;99053.00;;;8.00
4421;BMP180;11824;51.178;13.546;2023-04-15T01:33:34;99044.00;;;7.90
4421;BMP180;11824;51.178;13.546;2023-04-15T01:36:02;99037.00;;;7.90
4421;BMP180;11824;51.178;13.546;2023-04-15T01:38:30;99041.00;;;7.90
4421;BMP180;11824;51.178;13.546;2023-04-15T01:40:58;99051.00;;;8.00
4421;BMP180;11824;51.178;13.546;2023-04-15T01:43:26;99049.00;;;8.00
4421;BMP180;11824;51.178;13.546;2023-04-15T01:45:53;99048.00;;;8.00
4421;BMP180;11824;51.178;13.546;2023-04-15T01:48:21;99040.00;;;8.00
4421;BMP180;11824;51.178;13.546;2023-04-15T01:50:48;99036.00;;;8.00
4421;BMP180;11824;51.178;13.546;2023-04-15T01:53:16;99047.00;;;8.00
4421;BMP180;11824;51.178;13.546;2023-04-15T01:55:43;99040.00;;;8.00
4421;BMP180;11824;51.178;13.546;2023-04-15T01:58:11;99040.00;;;8.00
4421;BMP180;11824;51.178;13.546;2023-04-15T02:00:39;99041.00;;;8.00
4421;BMP180;11824;51.178;13.546;2023-04-15T02:03:06;99044.00;;;8.00
4421;BMP180;11824;51.178;13.546;2023-04-15T02:05:34;99043.00;;;8.00
4421;BMP180;11824;51.178;13.546;2023-04-15T02:08:01;99052.00;;;8.00
4421;BMP180;11824;51.178;13.546;2023-04-15T02:10:29;99039.00;;;8.00
4421;BMP180;11824;51.178;13.546;2023-04-15T02:12:56;99030.00;;;8.00
4421;BMP180;11824;51.178;13.546;2023-04-15T02:15:24;99030.00;;;8.00
4421;BMP180;11824;51.178;13.546;2023-04-15T02:17:52;99030.00;;;8.00
4421;BMP180;11824;51.178;13.546;2023-04-15T02:20:21;99023.00;;;8.00
4421;BMP180;11824;51.178;13.546;2023-04-15T02:22:49;99015.00;;;8.00
4421;BMP180;11824;51.178;13.546;2023-04-15T02:25:16;99026.00;;;8.00
4421;BMP180;11824;51.178;13.546;2023-04-15T02:27:44;99021.00;;;8.00
4421;BMP180;11824;51.178;13.546;2023-04-15T02:30:11;99019.00;;;8.00
4421;BMP180;11824;51.178;13.546;2023-04-15T02:32:39;99018.00;;;8.00
4421;BMP180;11824;51.178;13.546;2023-04-15T02:35:08;99010.00;;;8.00
4421;BMP180;11824;51.178;13.546;2023-04-15T02:37:36;99013.00;;;8.00
4421;BMP180;11824;51.178;13.546;2023-04-15T02:40:08;99011.00;;;8.00
4421;BMP180;11824;51.178;13.546;2023-04-15T02:42:37;99013.00;;;8.00
4421;BMP180;11824;51.178;13.546;2023-04-15T02:45:05;99023.00;;;8.00
4421;BMP180;11824;51.178;13.546;2023-04-15T02:47:33;99026.00;;;8.00
4421;BMP180;11824;51.178;13.546;2023-04-15T02:50:01;99023.00;;;8.00
4421;BMP180;11824;51.178;13.546;2023-04-15T02:52:29;99030.00;;;8.00
4421;BMP180;11824;51.178;13.546;2023-04-15T02:54:56;99028.00;;;8.00
4421;BMP180;11824;51.178;13.546;2023-04-15T02:57:26;99024.00;;;8.00
4421;BMP180;11824;51.178;13.546;2023-04-15T02:59:54;99027.00;;;8.00
4421;BMP180;11824;51.178;13.546;2023-04-15T03:02:23;99021.00;;;8.00
4421;BMP180;11824;51.178;13.546;2023-04-15T03:04:51;99015.00;;;8.00
4421;BMP180;11824;51.178;13.546;2023-04-15T03:07:18;99012.00;;;8.10
4421;BMP180;11824;51.178;13.546;2023-04-15T03:09:46;99005.00;;;8.10
4421;BMP180;11824;51.178;13.546;2023-04-15T03:12:13;99010.00;;;8.10
4421;BMP180;11824;51.178;13.546;2023-04-15T03:14:41;99010.00;;;8.10
4421;BMP180;11824;51.178;13.546;2023-04-15T03:17:08;99003.00;;;8.00
4421;BMP180;11824;51.178;13.546;2023-04-15T03:19:36;99007.00;;;8.10
4421;BMP180;11824;51.178;13.546;2023-04-15T03:22:03;99005.00;;;8.10
4421;BMP180;11824;51.178;13.546;2023-04-15T03:24:30;99006.00;;;8.10
4421;BMP180;11824;51.178;13.546;2023-04-15T03:26:58;99011.00;;;8.10
4421;BMP180;11824;51.178;13.546;2023-04-15T03:29:26;99001.00;;;8.10
4421;BMP180;11824;51.178;13.546;2023-04-15T03:31:54;99007.00;;;8.10
4421;BMP180;11824;51.178;13.546;2023-04-15T03:34:21;99003.00;;;8.10
4421;BMP180;11824;51.178;13.546;2023-04-15T03:36:48;98997.00;;;8.10
4421;BMP180;11824;51.178;13.546;2023-04-15T03:39:16;98998.00;;;8.10
4421;BMP180;11824;51.178;13.546;2023-04-15T03:41:43;98989.00;;;8.10
4421;BMP180;11824;51.178;13.546;2023-04-15T03:44:11;98993.00;;;8.10
4421;BMP180;11824;51.178;13.546;2023-04-15T03:46:38;98995.00;;;8.10
4421;BMP180;11824;51.178;13.546;2023-04-15T03:49:07;98994.00;;;8.10
4421;BMP180;11824;51.178;13.546;2023-04-15T03:51:34;99002.00;;;8.20
4421;BMP180;11824;51.178;13.546;2023-04-15T03:54:02;98987.00;;;8.20
4421;BMP180;11824;51.178;13.546;2023-04-15T03:56:29;98987.00;;;8.20
4421;BMP180;11824;51.178;13.546;2023-04-15T03:58:56;99001.00;;;8.20
4421;BMP180;11824;51.178;13.546;2023-04-15T04:01:24;99003.00;;;8.20
4421;BMP180;11824;51.178;13.546;2023-04-15T04:03:52;98988.00;;;8.20
4421;BMP180;11824;51.178;13.546;2023-04-15T04:06:19;98978.00;;;8.20
4421;BMP180;11824;51.178;13.546;2023-04-15T04:08:47;98969.00;;;8.20
4421;BMP180;11824;51.178;13.546;2023-04-15T04:11:14;98975.00;;;8.20
4421;BMP180;11824;51.178;13.546;2023-04-15T04:13:45;98976.00;;;8.20
4421;BMP180;11824;51.178;13.546;2023-04-15T04:16:13;98971.00;;;8.20
4421;BMP180;11824;51.178;13.546;2023-04-15T04:18:41;98973.00;;;8.20
4421;BMP180;11824;51.178;13.546;2023-04-15T04:21:08;98987.00;;;8.20
4421;BMP180;11824;51.178;13.546;2023-04-15T04:23:35;98979.00;;;8.20
4421;BMP180;11824;51.178;13.546;2023-04-15T04:26:02;98973.00;;;8.20
4421;BMP180;11824;51.178;13.546;2023-04-15T04:28:30;98980.00;;;8.20
4421;BMP180;11824;51.178;13.546;2023-04-15T04:30:57;98975.00;;;8.20
4421;BMP180;11824;51.178;13.546;2023-04-15T04:33:25;98976.00;;;8.20
4421;BMP180;11824;51.178;13.546;2023-04-15T04:35:53;98978.00;;;8.20
4421;BMP180;11824;51.178;13.546;2023-04-15T04:38:20;98988.00;;;8.20
4421;BMP180;11824;51.178;13.546;2023-04-15T04:40:48;98987.00;;;8.20
4421;BMP180;11824;51.178;13.546;2023-04-15T04:43:15;98978.00;;;8.20
4421;BMP180;11824;51.178;13.546;2023-04-15T04:45:42;98980.00;;;8.20
4421;BMP180;11824;51.178;13.546;2023-04-15T04:48:09;98979.00;;;8.30
4421;BMP180;11824;51.178;13.546;2023-04-15T04:50:37;98986.00;;;8.30
4421;BMP180;11824;51.178;13.546;2023-04-15T04:53:05;98980.00;;;8.30
4421;BMP180;11824;51.178;13.546;2023-04-15T04:55:32;98993.00;;;8.30
4421;BMP180;11824;51.178;13.546;2023-04-15T04:58:02;98994.00;;;8.30
4421;BMP180;11824;51.178;13.546;2023-04-15T05:00:29;98994.00;;;8.30
4421;BMP180;11824;51.178;13.546;2023-04-15T05:02:57;98986.00;;;8.30
4421;BMP180;11824;51.178;13.546;2023-04-15T05:05:24;98992.00;;;8.30
4421;BMP180;11824;51.178;13.546;2023-04-15T05:07:52;98986.00;;;8.40
4421;BMP180;11824;51.178;13.546;2023-04-15T05:10:20;98989.00;;;8.40
4421;BMP180;11824;51.178;13.546;2023-04-15T05:12:47;98985.00;;;8.40
4421;BMP180;11824;51.178;13.546;2023-04-15T05:15:15;98983.00;;;8.40
4421;BMP180;11824;51.178;13.546;2023-04-15T05:17:42;98988.00;;;8.40
4421;BMP180;11824;51.178;13.546;2023-04-15T05:20:11;98982.00;;;8.40
4421;BMP180;11824;51.178;13.546;2023-04-15T05:22:38;98984.00;;;8.40
4421;BMP180;11824;51.178;13.546;2023-04-15T05:25:06;98984.00;;;8.50
4421;BMP180;11824;51.178;13.546;2023-04-15T05:27:35;98983.00;;;8.50
4421;BMP180;11824;51.178;13.546;2023-04-15T05:30:02;98995.00;;;8.50
4421;BMP180;11824;51.178;13.546;2023-04-15T05:32:29;98995.00;;;8.50
4421;BMP180;11824;51.178;13.546;2023-04-15T05:34:57;98993.00;;;8.50
4421;BMP180;11824;51.178;13.546;2023-04-15T05:37:24;98989.00;;;8.50
4421;BMP180;11824;51.178;13.546;2023-04-15T05:39:51;98987.00;;;8.60
4421;BMP180;11824;51.178;13.546;2023-04-15T05:42:19;98989.00;;;8.60
4421;BMP180;11824;51.178;13.546;2023-04-15T05:44:47;99000.00;;;8.60
4421;BMP180;11824;51.178;13.546;2023-04-15T05:47:14;98994.00;;;8.60
4421;BMP180;11824;51.178;13.546;2023-04-15T05:49:42;98991.00;;;8.70
4421;BMP180;11824;51.178;13.546;2023-04-15T05:52:09;98995.00;;;8.70
4421;BMP180;11824;51.178;13.546;2023-04-15T05:54:36;98998.00;;;8.70
4421;BMP180;11824;51.178;13.546;2023-04-15T05:57:05;99004.00;;;8.80
4421;BMP180;11824;51.178;13.546;2023-04-15T05:59:33;99005.00;;;8.80
4421;BMP180;11824;51.178;13.546;2023-04-15T06:02:01;99009.00;;;8.90
4421;BMP180;11824;51.178;13.546;2023-04-15T06:04:28;99006.00;;;8.90
4421;BMP180;11824;51.178;13.546;2023-04-15T06:06:56;99015.00;;;8.90
4421;BMP180;11824;51.178;13.546;2023-04-15T06:09:23;99012.00;;;8.90
4421;BMP180;11824;51.178;13.546;2023-04-15T06:11:51;99006.00;;;9.00
4421;BMP180;11824;51.178;13.546;2023-04-15T06:14:19;99019.00;;;9.00
4421;BMP180;11824;51.178;13.546;2023-04-15T06:16:46;99014.00;;;9.00
4421;BMP180;11824;51.178;13.546;2023-04-15T06:19:14;99015.00;;;9.00
4421;BMP180;11824;51.178;13.546;2023-04-15T06:21:41;99019.00;;;9.10
4421;BMP180;11824;51.178;13.546;2023-04-15T06:24:08;99014.00;;;9.10
4421;BMP180;11824;51.178;13.546;2023-04-15T06:26:36;99019.00;;;9.10
4421;BMP180;11824;51.178;13.546;2023-04-15T06:29:03;99014.00;;;9.20
4421;BMP180;11824;51.178;13.546;2023-04-15T06:31:31;99028.00;;;9.20
4421;BMP180;11824;51.178;13.546;2023-04-15T06:33:58;99033.00;;;9.20
4421;BMP180;11824;51.178;13.546;2023-04-15T06:36:27;99036.00;;;9.20
4421;BMP180;11824;51.178;13.546;2023-04-15T06:38:54;99029.00;;;9.20
4421;BMP180;11824;51.178;13.546;2023-04-15T06:41:22;99034.00;;;9.20
4421;BMP180;11824;51.178;13.546;2023-04-15T06:43:49;99047.00;;;9.30
4421;BMP180;11824;51.178;13.546;2023-04-15T06:46:17;99037.00;;;9.30
4421;BMP180;11824;51.178;13.546;2023-04-15T06:48:44;99055.00;;;9.30
4421;BMP180;11824;51.178;13.546;2023-04-15T06:51:12;99061.00;;;9.30
4421;BMP180;11824;51.178;13.546;2023-04-15T06:53:40;99043.00;;;9.30
4421;BMP180;11824;51.178;13.546;2023-04-15T06:56:09;99053.00;;;9.30
4421;BMP180;11824;51.178;13.546;2023-04-15T06:58:37;99058.00;;;9.30
4421;BMP180;11824;51.178;13.546;2023-04-15T07:01:04;99060.00;;;9.40
4421;BMP180;11824;51.178;13.546;2023-04-15T07:03:31;99055.00;;;9.40
4421;BMP180;11824;51.178;13.546;2023-04-15T07:05:59;99064.00;;;9.40
4421;BMP180;11824;51.178;13.546;2023-04-15T07:08:27;99064.00;;;9.40
4421;BMP180;11824;51.178;13.546;2023-04-15T07:10:55;99063.00;;;9.40
4421;BMP180;11824;51.178;13.546;2023-04-15T07:13:22;99071.00;;;9.50
4421;BMP180;11824;51.178;13.546;2023-04-15T07:15:50;99065.00;;;9.50
4421;BMP180;11824;51.178;13.546;2023-04-15T07:18:17;99068.00;;;9.50
4421;BMP180;11824;51.178;13.546;2023-04-15T07:20:47;99064.00;;;9.50
4421;BMP180;11824;51.178;13.546;2023-04-15T07:23:15;99082.00;;;9.60
4421;BMP180;11824;51.178;13.546;2023-04-15T07:25:42;99083.00;;;9.60
4421;BMP180;11824;51.178;13.546;2023-04-15T07:28:10;99085.00;;;9.60
4421;BMP180;11824;51.178;13.546;2023-04-15T07:30:38;99083.00;;;9.60
4421;BMP180;11824;51.178;13.546;2023-04-15T07:33:05;99086.00;;;9.60
4421;BMP180;11824;51.178;13.546;2023-04-15T07:35:32;99083.00;;;9.70
4421;BMP180;11824;51.178;13.546;2023-04-15T07:37:59;99094.00;;;9.70
4421;BMP180;11824;51.178;13.546;2023-04-15T07:40:27;99103.00;;;9.70
4421;BMP180;11824;51.178;13.546;2023-04-15T07:42:55;99094.00;;;9.70
4421;BMP180;11824;51.178;13.546;2023-04-15T07:45:24;99091.00;;;9.80
4421;BMP180;11824;51.178;13.546;2023-04-15T07:47:51;99074.00;;;9.80
4421;BMP180;11824;51.178;13.546;2023-04-15T07:50:19;99088.00;;;9.90
4421;BMP180;11824;51.178;13.546;2023-04-15T07:52:46;99099.00;;;9.90
4421;BMP180;11824;51.178;13.546;2023-04-15T07:55:14;99099.00;;;9.90
4421;BMP180;11824;51.178;13.546;2023-04-15T07:57:44;99103.00;;;10.00
4421;BMP180;11824;51.178;13.546;2023-04-15T08:00:14;99106.00;;;10.00
4421;BMP180;11824;51.178;13.546;2023-04-15T08:02:42;99109.00;;;10.00
4421;BMP180;11824;51.178;13.546;2023-04-15T08:05:10;99109.00;;;10.00
4421;BMP180;11824;51.178;13.546;2023-04-15T08:07:38;99109.00;;;10.00
4421;BMP180;11824;51.178;13.546;2023-04-15T08:10:06;99115.00;;;10.10
4421;BMP180;11824;51.178;13.546;2023-04-15T08:12:33;99119.00;;;10.10
4421;BMP180;11824;51.178;13.546;2023-04-15T08:15:01;99121.00;;;10.20
4421;BMP180;11824;51.178;13.546;2023-04-15T08:17:28;99125.00;;;10.30
4421;BMP180;11824;51.178;13.546;2023-04-15T08:19:56;99124.00;;;10.30
4421;BMP180;11824;51.178;13.546;2023-04-15T08:22:23;99134.00;;;10.40
4421;BMP180;11824;51.178;13.546;2023-04-15T08:24:51;99132.00;;;10.40
4421;BMP180;11824;51.178;13.546;2023-04-15T08:27:18;99138.00;;;10.50
4421;BMP180;11824;51.178;13.546;2023-04-15T08:29:45;99127.00;;;10.50
4421;BMP180;11824;51.178;13.546;2023-04-15T08:32:13;99138.00;;;10.50
4421;BMP180;11824;51.178;13.546;2023-04-15T08:34:40;99147.00;;;10.50
4421;BMP180;11824;51.178;13.546;2023-04-15T08:37:11;99145.00;;;10.50
4421;BMP180;11824;51.178;13.546;2023-04-15T08:39:39;99146.00;;;10.50
4421;BMP180;11824;51.178;13.546;2023-04-15T08:42:10;99152.00;;;10.50
4421;BMP180;11824;51.178;13.546;2023-04-15T08:44:40;99159.00;;;10.50
4421;BMP180;11824;51.178;13.546;2023-04-15T08:47:08;99157.00;;;10.50
4421;BMP180;11824;51.178;13.546;2023-04-15T08:49:38;99164.00;;;10.50
4421;BMP180;11824;51.178;13.546;2023-04-15T08:52:06;99161.00;;;10.50
4421;BMP180;11824;51.178;13.546;2023-04-15T08:54:35;99167.00;;;10.50
4421;BMP180;11824;51.178;13.546;2023-04-15T08:57:03;99171.00;;;10.50
4421;BMP180;11824;51.178;13.546;2023-04-15T08:59:30;99163.00;;;10.60
4421;BMP180;11824;51.178;13.546;2023-04-15T09:01:58;99167.00;;;10.60
4421;BMP180;11824;51.178;13.546;2023-04-15T09:04:26;99165.00;;;10.70
4421;BMP180;11824;51.178;13.546;2023-04-15T09:06:54;99167.00;;;10.80
4421;BMP180;11824;51.178;13.546;2023-04-15T09:09:21;99179.00;;;10.80
4421;BMP180;11824;51.178;13.546;2023-04-15T09:11:51;99170.00;;;10.90
4421;BMP180;11824;51.178;13.546;2023-04-15T09:14:18;99165.00;;;10.90
4421;BMP180;11824;51.178;13.546;2023-04-15T09:16:59;99172.00;;;11.00
4421;BMP180;11824;51.178;13.546;2023-04-15T09:19:27;99185.00;;;11.00
4421;BMP180;11824;51.178;13.546;2023-04-15T09:21:56;99191.00;;;11.10
4421;BMP180;11824;51.178;13.546;2023-04-15T09:24:32;99189.00;;;11.10
4421;BMP180;11824;51.178;13.546;2023-04-15T09:27:01;99193.00;;;11.10
4421;BMP180;11824;51.178;13.546;2023-04-15T09:29:34;99189.00;;;11.10
4421;BMP180;11824;51.178;13.546;2023-04-15T09:32:12;99190.00;;;11.20
4421;BMP180;11824;51.178;13.546;2023-04-15T09:34:40;99194.00;;;11.20
4421;BMP180;11824;51.178;13.546;2023-04-15T09:37:07;99193.00;;;11.20
4421;BMP180;11824;51.178;13.546;2023-04-15T09:39:47;99192.00;;;11.30
4421;BMP180;11824;51.178;13.546;2023-04-15T09:42:16;99202.00;;;11.40
4421;BMP180;11824;51.178;13.546;2023-04-15T09:44:49;99199.00;;;11.50
4421;BMP180;11824;51.178;13.546;2023-04-15T09:47:30;99204.00;;;11.60
4421;BMP180;11824;51.178;13.546;2023-04-15T09:49:59;99205.00;;;11.70
4421;BMP180;11824;51.178;13.546;2023-04-15T09:52:27;99213.00;;;11.90
4421;BMP180;11824;51.178;13.546;2023-04-15T09:54:57;99213.00;;;12.10
4421;BMP180;11824;51.178;13.546;2023-04-15T09:57:33;99223.00;;;12.40
4421;BMP180;11824;51.178;13.546;2023-04-15T10:00:01;99213.00;;;12.50
4421;BMP180;11824;51.178;13.546;2023-04-15T10:02:29;99223.00;;;12.70
4421;BMP180;11824;51.178;13.546;2023-04-15T10:04:59;99228.00;;;12.80
4421;BMP180;11824;51.178;13.546;2023-04-15T10:07:27;99234.00;;;12.90
4421;BMP180;11824;51.178;13.546;2023-04-15T10:09:55;99240.00;;;12.90
4421;BMP180;11824;51.178;13.546;2023-04-15T10:12:26;99238.00;;;12.90
4421;BMP180;11824;51.178;13.546;2023-04-15T10:14:58;99237.00;;;12.90
4421;BMP180;11824;51.178;13.546;2023-04-15T10:17:28;99240.00;;;12.90
4421;BMP180;11824;51.178;13.546;2023-04-15T10:20:00;99247.00;;;12.90
4421;BMP180;11824;51.178;13.546;2023-04-15T10:22:28;99248.00;;;12.90
4421;BMP180;11824;51.178;13.546;2023-04-15T10:24:56;99250.00;;;12.90
4421;BMP180;11824;51.178;13.546;2023-04-15T10:27:27;99252.00;;;12.90
4421;BMP180;11824;51.178;13.546;2023-04-15T10:29:55;99252.00;;;12.90
4421;BMP180;11824;51.178;13.546;2023-04-15T10:32:23;99256.00;;;12.90
4421;BMP180;11824;51.178;13.546;2023-04-15T10:34:51;99252.00;;;12.90
4421;BMP180;11824;51.178;13.546;2023-04-15T10:37:21;99263.00;;;12.90
4421;BMP180;11824;51.178;13.546;2023-04-15T10:39:49;99266.00;;;12.80
4421;BMP180;11824;51.178;13.546;2023-04-15T10:42:18;99258.00;;;12.80
4421;BMP180;11824;51.178;13.546;2023-04-15T10:44:49;99262.00;;;12.70
4421;BMP180;11824;51.178;13.546;2023-04-15T10:47:18;99265.00;;;12.50
4421;BMP180;11824;51.178;13.546;2023-04-15T10:49:48;99259.00;;;12.40
4421;BMP180;11824;51.178;13.546;2023-04-15T10:52:17;99262.00;;;12.30
4421;BMP180;11824;51.178;13.546;2023-04-15T10:54:45;99271.00;;;12.20
4421;BMP180;11824;51.178;13.546;2023-04-15T10:57:20;99268.00;;;12.10
4421;BMP180;11824;51.178;13.546;2023-04-15T11:00:08;99264.00;;;12.00
4421;BMP180;11824;51.178;13.546;2023-04-15T11:02:44;99261.00;;;11.90
4421;BMP180;11824;51.178;13.546;2023-04-15T11:05:13;99268.00;;;11.90
4421;BMP180;11824;51.178;13.546;2023-04-15T11:07:48;99277.00;;;11.80
4421;BMP180;11824;51.178;13.546;2023-04-15T11:13:18;99271.00;;;12.00
4421;BMP180;11824;51.178;13.546;2023-04-15T11:15:48;99274.00;;;12.10
4421;BMP180;11824;51.178;13.546;2023-04-15T11:18:19;99285.00;;;12.20
4421;BMP180;11824;51.178;13.546;2023-04-15T11:20:47;99299.00;;;12.30
4421;BMP180;11824;51.178;13.546;2023-04-15T11:23:17;99297.00;;;12.40
4421;BMP180;11824;51.178;13.546;2023-04-15T11:25:45;99291.00;;;12.50
4421;BMP180;11824;51.178;13.546;2023-04-15T11:28:14;99299.00;;;12.50
4421;BMP180;11824;51.178;13.546;2023-04-15T11:30:42;99293.00;;;12.60
4421;BMP180;11824;51.178;13.546;2023-04-15T11:33:11;99310.00;;;12.60
4421;BMP180;11824;51.178;13.546;2023-04-15T11:35:41;99300.00;;;12.70
4421;BMP180;11824;51.178;13.546;2023-04-15T11:38:10;99318.00;;;12.80
4421;BMP180;11824;51.178;13.546;2023-04-15T11:40:38;99312.00;;;12.90
4421;BMP180;11824;51.178;13.546;2023-04-15T11:43:07;99308.00;;;13.00
4421;BMP180;11824;51.178;13.546;2023-04-15T11:45:35;99317.00;;;13.10
4421;BMP180;11824;51.178;13.546;2023-04-15T11:48:07;99321.00;;;13.20
4421;BMP180;11824;51.178;13.546;2023-04-15T11:50:36;99326.00;;;13.20
4421;BMP180;11824;51.178;13.546;2023-04-15T11:53:07;99326.00;;;13.20
4421;BMP180;11824;51.178;13.546;2023-04-15T11:55:41;99324.00;;;13.20
4421;BMP180;11824;51.178;13.546;2023-04-15T11:58:11;99339.00;;;13.20
4421;BMP180;11824;51.178;13.546;2023-04-15T12:00:46;99329.00;;;13.10
4421;BMP180;11824;51.178;13.546;2023-04-15T12:03:19;99332.00;;;13.20
4421;BMP180;11824;51.178;13.546;2023-04-15T12:06:05;99325.00;;;13.20
4421;BMP180;11824;51.178;13.546;2023-04-15T12:08:56;99342.00;;;13.30
4421;BMP180;11824;51.178;13.546;2023-04-15T12:11:30;99344.00;;;13.40
4421;BMP180;11824;51.178;13.546;2023-04-15T12:13:59;99357.00;;;13.50
4421;BMP180;11824;51.178;13.546;2023-04-15T12:16:29;99340.00;;;13.50
4421;BMP180;11824;51.178;13.546;2023-04-15T12:18:58;99359.00;;;13.60
4421;BMP180;11824;51.178;13.546;2023-04-15T12:21:32;99356.00;;;13.70
4421;BMP180;11824;51.178;13.546;2023-04-15T12:24:02;99358.00;;;13.60
4421;BMP180;11824;51.178;13.546;2023-04-15T12:26:33;99366.00;;;13.60
4421;BMP180;11824;51.178;13.546;2023-04-15T12:29:01;99372.00;;;13.60
4421;BMP180;11824;51.178;13.546;2023-04-15T12:31:29;99365.00;;;13.60
4421;BMP180;11824;51.178;13.546;2023-04-15T12:33:57;99381.00;;;13.60
4421;BMP180;11824;51.178;13.546;2023-04-15T12:36:26;99381.00;;;13.50
4421;BMP180;11824;51.178;13.546;2023-04-15T12:38:53;99383.00;;;13.50
4421;BMP180;11824;51.178;13.546;2023-04-15T12:41:21;99384.00;;;13.40
4421;BMP180;11824;51.178;13.546;2023-04-15T12:43:50;99383.00;;;13.30
4421;BMP180;11824;51.178;13.546;2023-04-15T12:46:17;99374.00;;;13.20
4421;BMP180;11824;51.178;13.546;2023-04-15T12:48:46;99390.00;;;13.10
4421;BMP180;11824;51.178;13.546;2023-04-15T12:51:13;99383.00;;;13.00
4421;BMP180;11824;51.178;13.546;2023-04-15T12:53:41;99386.00;;;12.90
4421;BMP180;11824;51.178;13.546;2023-04-15T12:56:09;99383.00;;;12.90
4421;BMP180;11824;51.178;13.546;2023-04-15T12:58:36;99390.00;;;12.90
4421;BMP180;11824;51.178;13.546;2023-04-15T13:01:03;99396.00;;;12.90
4421;BMP180;11824;51.178;13.546;2023-04-15T13:03:32;99397.00;;;12.90
4421;BMP180;11824;51.178;13.546;2023-04-15T13:05:59;99401.00;;;12.90
4421;BMP180;11824;51.178;13.546;2023-04-15T13:08:27;99405.00;;;12.90
4421;BMP180;11824;51.178;13.546;2023-04-15T13:10:56;99411.00;;;12.90
4421;BMP180;11824;51.178;13.546;2023-04-15T13:13:23;99404.00;;;12.90
4421;BMP180;11824;51.178;13.546;2023-04-15T13:15:50;99407.00;;;12.90
4421;BMP180;11824;51.178;13.546;2023-04-15T13:18:18;99407.00;;;13.00
4421;BMP180;11824;51.178;13.546;2023-04-15T13:20:45;99411.00;;;13.00
4421;BMP180;11824;51.178;13.546;2023-04-15T13:23:13;99422.00;;;12.90
4421;BMP180;11824;51.178;13.546;2023-04-15T13:25:40;99422.00;;;12.90
4421;BMP180;11824;51.178;13.546;2023-04-15T13:28:09;99425.00;;;13.00
4421;BMP180;11824;51.178;13.546;2023-04-15T13:30:37;99421.00;;;13.10
4421;BMP180;11824;51.178;13.546;2023-04-15T13:33:05;99427.00;;;13.20
4421;BMP180;11824;51.178;13.546;2023-04-15T13:35:32;99431.00;;;13.40
4421;BMP180;11824;51.178;13.546;2023-04-15T13:38:00;99435.00;;;13.50
4421;BMP180;11824;51.178;13.546;2023-04-15T13:40:27;99437.00;;;13.60
4421;BMP180;11824;51.178;13.546;2023-04-15T13:42:54;99450.00;;;13.70
4421;BMP180;11824;51.178;13.546;2023-04-15T13:45:24;99452.00;;;13.80
4421;BMP180;11824;51.178;13.546;2023-04-15T13:47:51;99443.00;;;13.80
4421;BMP180;11824;51.178;13.546;2023-04-15T13:50:19;99446.00;;;13.90
4421;BMP180;11824;51.178;13.546;2023-04-15T13:52:46;99445.00;;;13.90
4421;BMP180;11824;51.178;13.546;2023-04-15T13:55:13;99449.00;;;14.00
4421;BMP180;11824;51.178;13.546;2023-04-15T13:57:47;99454.00;;;14.00
4421;BMP180;11824;51.178;13.546;2023-04-15T14:00:16;99447.00;;;14.00
4421;BMP180;11824;51.178;13.546;2023-04-15T14:02:44;99458.00;;;14.10
4421;BMP180;11824;51.178;13.546;2023-04-15T14:05:12;99455.00;;;14.10
4421;BMP180;11824;51.178;13.546;2023-04-15T14:07:39;99467.00;;;14.10
4421;BMP180;11824;51.178;13.546;2023-04-15T14:10:07;99468.00;;;14.10
4421;BMP180;11824;51.178;13.546;2023-04-15T14:12:34;99461.00;;;14.10
4421;BMP180;11824;51.178;13.546;2023-04-15T14:15:02;99470.00;;;14.10
4421;BMP180;11824;51.178;13.546;2023-04-15T14:17:29;99477.00;;;14.10
4421;BMP180;11824;51.178;13.546;2023-04-15T14:19:57;99466.00;;;14.10
4421;BMP180;11824;51.178;13.546;2023-04-15T14:22:25;99474.00;;;14.20
4421;BMP180;11824;51.178;13.546;2023-04-15T14:24:52;99483.00;;;14.30
4421;BMP180;11824;51.178;13.546;2023-04-15T14:27:21;99489.00;;;14.30